Time;durP1;ratioP1;P1;durP2;ratioP2;P2;SDS_P1;SDS_P2;PMS_P1;PMS_P2;Temp;Humidity;BMP_temperature;BMP_pressure;BME280_temperature;BME280_humidity;BME280_pressure;Samples;Min_cycle;Max_cycle;Signal;HPM_P1;HPM_P2
2022/11/16 00:01:07;;;;;;;9.38;8.32;;;10.80;99.90;;;;;;5037618;28;20474;-27
2022/11/16 00:03:33;;;;;;;12.52;9.02;;;10.80;99.90;;;;;;5053975;28;20037;-27
2022/11/16 00:06:01;;;;;;;10.93;9.10;;;10.80;99.90;;;;;;5054007;28;20025;-27
2022/11/16 00:08:29;;;;;;;9.63;8.73;;;10.80;99.90;;;;;;5054202;28;20367;-27
2022/11/16 00:11:01;;;;;;;11.15;9.77;;;10.80;99.90;;;;;;5053662;28;20037;-27
2022/11/16 00:13:27;;;;;;;10.50;9.50;;;10.80;99.90;;;;;;5053736;28;20044;-27
2022/11/16 00:15:54;;;;;;;11.18;9.25;;;10.80;99.90;;;;;;5053574;28;20037;-27
2022/11/16 00:18:20;;;;;;;10.20;9.20;;;10.80;99.90;;;;;;5053619;28;20131;-27
2022/11/16 00:20:46;;;;;;;9.95;9.00;;;10.80;99.90;;;;;;5053739;28;20100;-27
2022/11/16 00:23:12;;;;;;;11.15;10.05;;;10.90;99.90;;;;;;5053392;28;20516;-27
2022/11/16 00:25:38;;;;;;;10.20;8.80;;;10.80;99.90;;;;;;5036668;28;20044;-27
2022/11/16 00:28:04;;;;;;;12.77;10.02;;;10.80;99.90;;;;;;5053552;28;20107;-27
2022/11/16 00:30:29;;;;;;;10.95;9.85;;;10.80;99.90;;;;;;5036909;28;20048;-27
2022/11/16 00:32:59;;;;;;;11.15;9.55;;;10.80;99.90;;;;;;5053539;28;20072;-27
2022/11/16 00:35:25;;;;;;;11.73;9.52;;;10.80;99.90;;;;;;5053351;28;20041;-27
2022/11/16 00:37:51;;;;;;;11.63;10.43;;;10.80;99.90;;;;;;5053214;28;20045;-27
2022/11/16 00:40:17;;;;;;;10.48;9.38;;;10.90;99.90;;;;;;5036655;28;20103;-27
2022/11/16 00:42:42;;;;;;;11.57;10.38;;;10.90;99.90;;;;;;5053247;28;20462;-27
2022/11/16 00:45:09;;;;;;;11.63;10.27;;;10.90;99.90;;;;;;5035632;28;20041;-27
2022/11/16 00:47:34;;;;;;;10.27;9.27;;;10.90;99.90;;;;;;5036415;28;20043;-27
2022/11/16 00:50:00;;;;;;;11.05;9.93;;;10.90;99.90;;;;;;5053128;28;20036;-27
2022/11/16 00:52:26;;;;;;;13.35;11.13;;;10.90;99.90;;;;;;5053161;28;20033;-27
2022/11/16 00:54:52;;;;;;;11.43;10.07;;;10.90;99.90;;;;;;5036478;28;20102;-27
2022/11/16 00:57:17;;;;;;;12.57;10.32;;;10.90;99.90;;;;;;5036530;28;20398;-27
2022/11/16 00:59:43;;;;;;;11.80;9.98;;;10.90;99.90;;;;;;5036079;28;20048;-27
2022/11/16 01:02:09;;;;;;;13.20;10.38;;;10.90;99.90;;;;;;5052969;28;20040;-27
2022/11/16 01:04:34;;;;;;;12.35;10.82;;;10.90;99.90;;;;;;5035987;28;20580;-27
2022/11/16 01:07:00;;;;;;;12.55;10.77;;;10.90;99.90;;;;;;5035914;28;20406;-27
2022/11/16 01:09:26;;;;;;;11.02;9.90;;;10.90;99.90;;;;;;5036299;28;20075;-27
2022/11/16 01:12:11;;;;;;;10.27;9.32;;;10.90;99.90;;;;;;5052670;28;20123;-27
2022/11/16 01:14:46;;;;;;;11.45;9.30;;;11.00;99.90;;;;;;5052662;28;20390;-27
2022/11/16 01:17:13;;;;;;;11.35;10.20;;;11.00;99.90;;;;;;5036282;28;20040;-27
2022/11/16 01:19:40;;;;;;;9.90;9.00;;;11.00;99.90;;;;;;5035576;28;20120;-27
2022/11/16 01:22:06;;;;;;;10.65;9.60;;;11.00;99.90;;;;;;5052666;28;20191;-27
2022/11/16 01:24:31;;;;;;;12.00;9.73;;;11.00;99.90;;;;;;5052500;28;20526;-27
2022/11/16 01:26:57;;;;;;;10.90;9.57;;;11.00;99.90;;;;;;5052292;28;20115;-27
2022/11/16 01:29:25;;;;;;;13.18;9.82;;;11.00;99.90;;;;;;5052272;28;20041;-27
2022/11/16 01:31:50;;;;;;;12.18;9.63;;;11.00;99.90;;;;;;5052112;28;20124;-27
2022/11/16 01:34:16;;;;;;;12.45;10.05;;;11.00;99.90;;;;;;5052167;28;20123;-27
2022/11/16 01:36:42;;;;;;;12.57;10.20;;;11.00;99.90;;;;;;5035611;28;20478;-27
2022/11/16 01:39:11;;;;;;;11.93;10.40;;;11.00;99.90;;;;;;5019083;28;20045;-27
2022/11/16 01:41:38;;;;;;;11.52;10.20;;;11.00;99.90;;;;;;5035783;28;20443;-27
2022/11/16 01:44:13;;;;;;;10.70;9.30;;;11.00;99.90;;;;;;5035328;28;20040;-27
2022/11/16 01:46:40;;;;;;;11.75;9.82;;;11.00;99.90;;;;;;5035798;28;20041;-27
2022/11/16 01:49:15;;;;;;;14.40;9.68;;;11.10;99.90;;;;;;5052312;28;20455;-27
2022/11/16 01:51:46;;;;;;;12.73;10.02;;;11.00;99.90;;;;;;5052705;28;20397;-27
2022/11/16 01:54:12;;;;;;;12.10;9.93;;;11.10;99.90;;;;;;5035811;28;20041;-27
2022/11/16 01:56:40;;;;;;;11.68;10.07;;;11.10;99.90;;;;;;5052587;28;20047;-27
2022/11/16 01:59:06;;;;;;;12.38;9.60;;;11.10;99.90;;;;;;5035343;28;20094;-28
2022/11/16 02:01:32;;;;;;;12.43;10.07;;;11.10;99.90;;;;;;5048667;28;20141;-29
2022/11/16 02:03:58;;;;;;;10.38;9.02;;;11.00;99.90;;;;;;5025987;28;20136;-29
2022/11/16 02:06:26;;;;;;;10.82;8.00;;;11.10;99.90;;;;;;5034456;28;20040;-29
2022/11/16 02:12:20;;;;;;;10.52;8.75;;;11.00;99.90;;;;;;5051075;28;20048;-29
2022/11/16 02:15:20;;;;;;;11.77;9.52;;;11.00;99.90;;;;;;5034034;28;20112;-29
2022/11/16 02:17:57;;;;;;;10.07;8.75;;;11.00;99.90;;;;;;5043659;28;20506;-29
2022/11/16 02:20:44;;;;;;;10.95;9.43;;;11.00;99.90;;;;;;5016496;28;20518;-29
2022/11/16 02:23:19;;;;;;;9.65;8.65;;;11.00;99.90;;;;;;5035210;28;20089;-29
2022/11/16 02:26:23;;;;;;;9.35;8.35;;;11.00;99.90;;;;;;5032776;28;20025;-29
2022/11/16 02:29:37;;;;;;;9.40;7.95;;;11.00;99.90;;;;;;5046780;28;20041;-29
2022/11/16 02:32:21;;;;;;;9.68;8.68;;;11.00;99.90;;;;;;4931681;29;20417;-29
2022/11/16 02:34:53;;;;;;;;;;;11.00;99.90;;;;;;5022498;28;20045;-29
2022/11/16 02:37:23;;;;;;;9.27;8.15;;;11.00;99.90;;;;;;5035076;28;19917;-29
2022/11/16 02:39:54;;;;;;;8.93;8.07;;;11.00;99.90;;;;;;5030183;28;20080;-29
2022/11/16 02:42:31;;;;;;;9.23;7.97;;;11.00;99.90;;;;;;5033449;28;20033;-29
2022/11/16 02:44:59;;;;;;;11.70;8.02;;;11.00;99.90;;;;;;5027737;28;20369;-29
2022/11/16 02:47:30;;;;;;;10.60;8.50;;;11.00;99.90;;;;;;5033455;28;20113;-29
2022/11/16 02:50:08;;;;;;;9.65;8.00;;;11.00;99.90;;;;;;5046780;28;20112;-29
2022/11/16 02:52:35;;;;;;;9.52;8.40;;;11.00;99.90;;;;;;5032085;28;20512;-29
2022/11/16 02:55:01;;;;;;;9.82;8.32;;;10.90;99.90;;;;;;5033384;28;20041;-29
2022/11/16 02:58:00;;;;;;;9.98;7.15;;;10.90;99.90;;;;;;5048057;28;20071;-29
2022/11/16 03:00:42;;;;;;;10.30;7.93;;;11.00;99.90;;;;;;5015621;28;20056;-29
2022/11/16 03:03:36;;;;;;;10.00;7.90;;;10.90;99.90;;;;;;5024880;28;20398;-29
2022/11/16 03:06:20;;;;;;;12.00;9.25;;;10.90;99.90;;;;;;5043852;28;20038;-29
2022/11/16 03:08:58;;;;;;;;;;;10.90;99.90;;;;;;5031855;28;20029;-29
2022/11/16 03:14:13;;;;;;;10.75;8.55;;;10.90;99.90;;;;;;5055712;28;20108;-29
2022/11/16 03:16:57;;;;;;;11.18;8.63;;;10.90;99.90;;;;;;5028051;28;20030;-29
2022/11/16 03:19:27;;;;;;;;;;;10.90;99.90;;;;;;5039495;28;20037;-29
2022/11/16 03:22:03;;;;;;;11.57;8.48;;;10.90;99.90;;;;;;5019145;28;19967;-29
2022/11/16 03:24:30;;;;;;;11.30;9.38;;;10.80;99.90;;;;;;5039675;28;20032;-29
2022/11/16 03:27:07;;;;;;;10.40;9.02;;;10.80;99.90;;;;;;5039705;28;20120;-29
2022/11/16 03:30:06;;;;;;;16.48;9.73;;;10.80;99.90;;;;;;5039330;28;20509;-29
2022/11/16 03:32:52;;;;;;;11.82;9.57;;;10.80;99.90;;;;;;5020708;28;20473;-29
2022/11/16 03:35:20;;;;;;;12.38;10.05;;;10.80;99.90;;;;;;5037998;28;20051;-29
2022/11/16 03:37:48;;;;;;;12.82;10.95;;;10.80;99.90;;;;;;5039522;28;20048;-29
2022/11/16 03:40:15;;;;;;;13.60;10.68;;;10.80;99.90;;;;;;5035486;28;20115;-29
2022/11/16 03:42:43;;;;;;;11.32;9.75;;;10.80;99.90;;;;;;5023635;28;20120;-29
2022/11/16 03:45:11;;;;;;;13.02;10.73;;;10.80;99.90;;;;;;5055464;28;20087;-29
2022/11/16 03:47:38;;;;;;;12.45;10.55;;;10.80;99.90;;;;;;5039708;28;20108;-29
2022/11/16 03:50:04;;;;;;;14.43;11.32;;;10.80;99.90;;;;;;5038945;28;20040;-29
2022/11/16 03:52:30;;;;;;;15.00;11.40;;;10.80;99.90;;;;;;5030034;28;20045;-29
2022/11/16 03:54:56;;;;;;;14.93;11.05;;;10.80;99.90;;;;;;5039814;28;20041;-29
2022/11/16 03:57:22;;;;;;;14.68;11.30;;;10.80;99.90;;;;;;5039246;28;20041;-29
2022/11/16 03:59:47;;;;;;;13.90;11.80;;;10.80;99.90;;;;;;5034277;28;20081;-29
2022/11/16 04:02:13;;;;;;;16.38;12.45;;;10.70;99.90;;;;;;5035834;28;20112;-29
2022/11/16 04:24:18;;;;;;;15.90;12.77;;;10.70;99.90;;;;;;5049898;28;20124;-29
2022/11/16 04:29:33;;;;;;;17.27;14.05;;;10.60;99.90;;;;;;5050785;28;20048;-29
2022/11/16 04:40:12;;;;;;;18.98;14.85;;;10.60;99.90;;;;;;5049772;28;20102;-29
2022/11/16 04:42:38;;;;;;;16.20;12.57;;;10.60;99.90;;;;;;5032505;28;20053;-29
2022/11/16 04:47:49;;;;;;;19.00;15.32;;;10.60;99.90;;;;;;5039414;28;20132;-29
2022/11/16 04:50:15;;;;;;;17.13;14.07;;;10.60;99.90;;;;;;5035591;28;20041;-29
2022/11/16 04:52:41;;;;;;;18.42;14.70;;;10.60;99.90;;;;;;5026142;28;20044;-29
2022/11/16 04:55:07;;;;;;;16.73;13.77;;;10.60;99.90;;;;;;5035646;28;20056;-29
2022/11/16 04:57:33;;;;;;;17.40;15.07;;;10.60;99.90;;;;;;5036180;28;20037;-28
2022/11/16 04:59:59;;;;;;;18.45;15.25;;;10.60;99.90;;;;;;5034383;28;20776;-28
2022/11/16 05:02:25;;;;;;;19.83;14.90;;;10.60;99.90;;;;;;5045888;28;20060;-28
2022/11/16 05:04:50;;;;;;;17.42;14.68;;;10.60;99.90;;;;;;5028700;28;20040;-28
2022/11/16 05:07:16;;;;;;;17.52;13.57;;;10.60;99.90;;;;;;5022389;28;20036;-29
2022/11/16 05:09:47;;;;;;;18.58;15.45;;;10.60;99.90;;;;;;5052294;28;20119;-29
2022/11/16 05:12:23;;;;;;;17.42;14.63;;;10.60;99.90;;;;;;5034821;28;20049;-29
2022/11/16 05:14:49;;;;;;;17.27;14.95;;;10.60;99.90;;;;;;5026756;28;20047;-29
2022/11/16 05:17:15;;;;;;;16.58;14.23;;;10.60;99.90;;;;;;5037460;28;20493;-29
2022/11/16 05:22:26;;;;;;;21.40;16.40;;;10.60;99.90;;;;;;5041112;28;20068;-29
2022/11/16 05:24:52;;;;;;;21.98;16.70;;;10.60;99.90;;;;;;5034760;28;20116;-29
2022/11/16 05:27:20;;;;;;;18.85;15.75;;;10.60;99.90;;;;;;5031709;28;20041;-29
2022/11/16 05:29:48;;;;;;;19.73;15.48;;;10.60;99.90;;;;;;5033300;28;20037;-29
2022/11/16 05:32:14;;;;;;;18.77;15.90;;;10.60;99.90;;;;;;5043282;28;20612;-29
2022/11/16 05:34:41;;;;;;;17.95;16.02;;;10.60;99.90;;;;;;5033766;28;20124;-29
2022/11/16 05:37:06;;;;;;;18.88;15.93;;;10.60;99.90;;;;;;5034567;28;20041;-29
2022/11/16 05:39:32;;;;;;;20.33;16.13;;;10.60;99.90;;;;;;5038732;28;20040;-29
2022/11/16 05:41:58;;;;;;;18.23;15.38;;;10.60;99.90;;;;;;5012735;28;20036;-29
2022/11/16 05:44:24;;;;;;;20.17;16.30;;;10.60;99.90;;;;;;5026109;28;20249;-29
2022/11/16 05:46:50;;;;;;;24.00;18.08;;;10.60;99.90;;;;;;5033805;28;20393;-29
2022/11/16 05:49:17;;;;;;;21.13;18.15;;;10.60;99.90;;;;;;5033915;28;20056;-29
2022/11/16 05:51:44;;;;;;;21.25;17.27;;;10.60;99.90;;;;;;5038708;28;20482;-29
2022/11/16 05:54:12;;;;;;;20.17;16.65;;;10.50;99.90;;;;;;5033398;28;20044;-29
2022/11/16 05:56:38;;;;;;;19.13;16.08;;;10.60;99.90;;;;;;5042469;28;20041;-29
2022/11/16 05:59:04;;;;;;;18.73;16.13;;;10.60;99.90;;;;;;5017061;28;20483;-29
2022/11/16 06:01:30;;;;;;;25.38;18.58;;;10.60;99.90;;;;;;5031948;28;20506;-29
2022/11/16 06:03:59;;;;;;;21.50;17.90;;;10.60;99.90;;;;;;5027717;28;20092;-29
2022/11/16 06:06:25;;;;;;;22.50;16.98;;;10.50;99.90;;;;;;5032372;28;20048;-29
2022/11/16 06:08:51;;;;;;;23.38;18.15;;;10.60;99.90;;;;;;5031451;28;20067;-29
2022/11/16 06:11:17;;;;;;;23.58;19.05;;;10.60;99.90;;;;;;5030995;28;20036;-29
2022/11/16 06:13:42;;;;;;;22.20;18.42;;;10.60;99.90;;;;;;5032054;28;20508;-29
2022/11/16 06:16:09;;;;;;;20.55;17.00;;;10.60;99.90;;;;;;5033241;28;20035;-29
2022/11/16 06:18:39;;;;;;;20.58;17.13;;;10.60;99.90;;;;;;5032669;28;20036;-31
2022/11/16 06:21:06;;;;;;;18.60;16.48;;;10.70;99.90;;;;;;5022248;28;20033;-29
2022/11/16 06:23:32;;;;;;;22.50;18.00;;;10.70;99.90;;;;;;5033586;28;20486;-29
2022/11/16 06:25:59;;;;;;;22.60;19.17;;;10.70;99.90;;;;;;5030300;28;20094;-30
2022/11/16 06:28:25;;;;;;;23.80;17.88;;;10.70;99.90;;;;;;5033248;28;20041;-28
2022/11/16 06:30:51;;;;;;;26.08;19.77;;;10.70;99.90;;;;;;5033124;28;20120;-28
2022/11/16 06:33:17;;;;;;;27.73;22.08;;;10.70;99.90;;;;;;5017409;28;20112;-28
2022/11/16 06:35:43;;;;;;;27.65;21.45;;;10.70;99.90;;;;;;5033648;28;20041;-28
2022/11/16 06:38:09;;;;;;;28.33;22.02;;;10.70;99.90;;;;;;5027128;28;20565;-29
2022/11/16 06:40:36;;;;;;;28.33;19.90;;;10.70;99.90;;;;;;5033322;28;20032;-28
2022/11/16 06:43:02;;;;;;;22.55;18.70;;;10.70;99.90;;;;;;5032238;28;20040;-28
2022/11/16 06:45:28;;;;;;;25.30;19.55;;;10.70;99.90;;;;;;5033589;28;20082;-28
2022/11/16 06:47:54;;;;;;;22.05;17.90;;;10.70;99.90;;;;;;5033560;28;20041;-29
2022/11/16 06:50:19;;;;;;;19.45;14.68;;;10.70;99.90;;;;;;5032312;28;20102;-28
2022/11/16 06:52:46;;;;;;;18.35;14.48;;;10.70;99.90;;;;;;5033681;28;20474;-28
2022/11/16 06:55:13;;;;;;;15.48;13.85;;;10.70;99.90;;;;;;5028057;28;20102;-28
2022/11/16 06:57:39;;;;;;;14.00;12.40;;;10.70;99.90;;;;;;5036225;28;20398;-28
2022/11/16 07:00:06;;;;;;;13.40;11.70;;;10.70;99.90;;;;;;5032804;28;20045;-28
2022/11/16 07:02:36;;;;;;;16.17;12.18;;;10.60;99.90;;;;;;5033022;28;20068;-26
2022/11/16 07:05:03;;;;;;;12.93;11.50;;;10.60;99.90;;;;;;5024787;28;20044;-26
2022/11/16 07:07:29;;;;;;;15.10;11.88;;;10.60;99.90;;;;;;5034514;28;20068;-26
2022/11/16 07:09:55;;;;;;;12.27;10.98;;;10.60;99.90;;;;;;5033010;28;20079;-26
2022/11/16 07:12:20;;;;;;;17.50;12.23;;;10.60;99.90;;;;;;5026070;28;20049;-28
2022/11/16 07:14:46;;;;;;;13.25;11.23;;;10.60;99.90;;;;;;5026188;28;20609;-25
2022/11/16 07:17:12;;;;;;;15.38;13.48;;;10.50;99.90;;;;;;5032791;28;20513;-25
2022/11/16 07:19:38;;;;;;;17.85;14.65;;;10.50;99.90;;;;;;5013118;28;20418;-26
2022/11/16 07:22:05;;;;;;;18.85;14.52;;;10.50;99.90;;;;;;5043580;28;20029;-28
2022/11/16 07:24:31;;;;;;;20.95;15.18;;;10.50;99.90;;;;;;5032712;28;20043;-26
2022/11/16 07:26:57;;;;;;;16.20;14.50;;;10.50;99.90;;;;;;5033372;28;20120;-26
2022/11/16 07:29:23;;;;;;;16.25;13.20;;;10.50;99.90;;;;;;5032051;28;20125;-26
2022/11/16 07:31:49;;;;;;;17.90;14.85;;;10.50;99.90;;;;;;5032733;28;20478;-26
2022/11/16 07:34:15;;;;;;;19.02;14.80;;;10.50;99.90;;;;;;5033226;28;20095;-26
2022/11/16 07:36:41;;;;;;;15.13;13.25;;;10.50;99.90;;;;;;5033193;28;20036;-28
2022/11/16 07:39:09;;;;;;;18.17;14.50;;;10.50;99.90;;;;;;5033369;28;20048;-26
2022/11/16 07:41:37;;;;;;;15.70;12.65;;;10.50;99.90;;;;;;5024638;28;20128;-26
2022/11/16 07:44:03;;;;;;;15.32;11.98;;;10.50;99.90;;;;;;5026077;28;20037;-28
2022/11/16 07:46:29;;;;;;;17.83;14.18;;;10.50;99.90;;;;;;5031919;28;20040;-26
2022/11/16 07:48:56;;;;;;;15.02;12.95;;;10.50;99.90;;;;;;5029900;28;20484;-28
2022/11/16 07:51:22;;;;;;;16.15;14.40;;;10.50;99.90;;;;;;5030034;28;20038;-26
2022/11/16 07:53:54;;;;;;;26.60;19.83;;;10.50;99.90;;;;;;5034319;28;20064;-26
2022/11/16 07:56:20;;;;;;;20.95;15.63;;;10.40;99.90;;;;;;5039408;28;20047;-26
2022/11/16 07:58:46;;;;;;;19.10;16.58;;;10.50;99.90;;;;;;5036490;28;20471;-26
2022/11/16 08:01:14;;;;;;;18.15;15.43;;;10.50;99.90;;;;;;5043082;28;20068;-26
2022/11/16 08:03:41;;;;;;;17.02;14.98;;;10.50;99.90;;;;;;5036187;28;20039;-26
2022/11/16 08:06:15;;;;;;;17.20;15.35;;;10.40;99.90;;;;;;5036532;28;20036;-26
2022/11/16 08:08:40;;;;;;;;;;;10.50;99.90;;;;;;5032985;28;20068;-26
2022/11/16 08:11:09;;;;;;;19.58;16.00;;;10.40;99.90;;;;;;5052845;28;19916;-26
2022/11/16 08:13:36;;;;;;;17.60;15.40;;;10.40;99.90;;;;;;5036433;28;20045;-26
2022/11/16 08:16:03;;;;;;;19.92;16.73;;;10.40;99.90;;;;;;5035857;28;20037;-27
2022/11/16 08:18:30;;;;;;;19.10;16.20;;;10.40;99.90;;;;;;5034979;28;20037;-27
2022/11/16 08:21:00;;;;;;;16.70;15.00;;;10.40;99.90;;;;;;5053896;28;20490;-27
2022/11/16 08:23:27;;;;;;;17.63;15.75;;;10.40;99.90;;;;;;5036198;28;20120;-27
2022/11/16 08:26:01;;;;;;;21.45;15.52;;;10.50;99.90;;;;;;5035926;28;20120;-27
2022/11/16 08:28:27;;;;;;;16.85;14.90;;;10.50;99.90;;;;;;5036893;28;20044;-27
2022/11/16 08:30:53;;;;;;;23.70;18.70;;;10.50;99.90;;;;;;5035930;28;20045;-27
2022/11/16 08:33:20;;;;;;;18.52;16.40;;;10.50;99.90;;;;;;5035942;28;20402;-27
2022/11/16 08:35:56;;;;;;;29.42;20.30;;;10.50;99.90;;;;;;5036375;28;20107;-26
2022/11/16 08:38:21;;;;;;;18.85;16.75;;;10.60;99.90;;;;;;5036129;28;20041;-27
2022/11/16 08:40:49;;;;;;;29.83;22.20;;;10.60;99.90;;;;;;5053450;28;20106;-27
2022/11/16 08:43:15;;;;;;;32.90;23.30;;;10.60;99.90;;;;;;5036062;28;20072;-27
2022/11/16 08:45:47;;;;;;;32.60;24.52;;;10.70;99.90;;;;;;5040868;28;20525;-27
2022/11/16 08:48:12;;;;;;;27.20;20.38;;;10.70;99.90;;;;;;5036001;28;20087;-27
2022/11/16 08:50:38;;;;;;;32.00;23.30;;;10.80;99.90;;;;;;5036294;28;20037;-27
2022/11/16 08:53:04;;;;;;;23.75;20.67;;;10.80;99.90;;;;;;5034099;28;20490;-27
2022/11/16 08:55:29;;;;;;;24.65;21.23;;;10.80;99.90;;;;;;5035511;28;20036;-27
2022/11/16 08:57:55;;;;;;;27.35;20.55;;;10.90;99.90;;;;;;5053922;28;20068;-27
2022/11/16 09:00:21;;;;;;;30.13;22.45;;;11.00;99.90;;;;;;5035407;28;20036;-27
2022/11/16 09:02:47;;;;;;;29.77;23.55;;;11.10;99.90;;;;;;5035699;28;20036;-27
2022/11/16 09:05:12;;;;;;;29.95;24.73;;;11.10;99.90;;;;;;5034334;28;20090;-27
2022/11/16 09:07:39;;;;;;;33.47;26.95;;;11.20;99.90;;;;;;5048665;28;20444;-27
2022/11/16 09:10:06;;;;;;;31.10;24.70;;;11.20;99.90;;;;;;5032441;28;20110;-27
2022/11/16 09:12:33;;;;;;;30.23;24.80;;;11.30;99.90;;;;;;5035476;28;20045;-27
2022/11/16 09:14:58;;;;;;;31.27;23.52;;;11.30;99.90;;;;;;5035639;28;20037;-27
2022/11/16 09:17:24;;;;;;;25.40;20.92;;;11.40;99.90;;;;;;5050975;28;20098;-27
2022/11/16 09:19:50;;;;;;;23.90;20.80;;;11.40;99.90;;;;;;5031175;28;20043;-27
2022/11/16 09:22:15;;;;;;;25.73;21.33;;;11.40;99.90;;;;;;5032623;28;20044;-27
2022/11/16 09:24:41;;;;;;;26.40;20.30;;;11.40;99.90;;;;;;5035148;28;20059;-27
2022/11/16 09:27:07;;;;;;;23.65;19.52;;;11.40;99.90;;;;;;5035386;28;20131;-27
2022/11/16 09:29:33;;;;;;;26.80;20.65;;;11.40;99.90;;;;;;5034703;28;20047;-27
2022/11/16 09:31:58;;;;;;;22.42;19.40;;;11.50;99.90;;;;;;5015265;28;20041;-27
2022/11/16 09:34:24;;;;;;;22.58;18.23;;;11.60;99.90;;;;;;5032744;28;20040;-27
2022/11/16 09:36:50;;;;;;;24.85;19.42;;;11.70;99.90;;;;;;5034954;28;20037;-27
2022/11/16 09:39:16;;;;;;;20.67;16.73;;;11.80;99.90;;;;;;5032537;28;20051;-27
2022/11/16 09:42:19;;;;;;;20.60;16.90;;;11.90;99.90;;;;;;5052706;28;20116;-27
2022/11/16 09:44:58;;;;;;;21.23;15.38;;;11.90;99.90;;;;;;5029557;28;20037;-27
2022/11/16 09:47:39;;;;;;;17.27;12.77;;;12.10;99.90;;;;;;5036772;28;20041;-27
2022/11/16 09:50:09;;;;;;;15.88;11.82;;;12.30;99.90;;;;;;5051085;28;20343;-27
2022/11/16 09:52:40;;;;;;;14.32;12.63;;;12.40;99.90;;;;;;5034465;28;20051;-27
2022/11/16 09:55:44;;;;;;;15.13;12.02;;;12.50;99.90;;;;;;5029452;28;20033;-27
2022/11/16 09:58:30;;;;;;;13.27;11.07;;;12.70;99.90;;;;;;5028254;28;20640;-27
2022/11/16 10:01:12;;;;;;;16.40;11.13;;;12.80;99.90;;;;;;5045494;28;20541;-27
2022/11/16 10:03:42;;;;;;;12.30;10.98;;;12.70;99.90;;;;;;5032560;28;20540;-27
2022/11/16 10:06:20;;;;;;;13.02;10.30;;;12.60;99.90;;;;;;5013202;28;20037;-27
2022/11/16 10:08:55;;;;;;;14.15;10.18;;;12.50;99.90;;;;;;5047456;28;20075;-27
2022/11/16 10:11:39;;;;;;;14.15;10.10;;;12.40;99.90;;;;;;5034806;28;20136;-27
2022/11/16 10:14:32;;;;;;;13.02;10.43;;;12.50;99.90;;;;;;5051062;28;20036;-27
2022/11/16 10:17:16;;;;;;;16.23;10.30;;;12.70;99.90;;;;;;5028419;28;20105;-27
2022/11/16 10:19:48;;;;;;;11.85;8.77;;;13.30;99.90;;;;;;5042761;28;20032;-27
2022/11/16 10:22:27;;;;;;;10.48;7.55;;;13.60;99.90;;;;;;5049994;28;20033;-27
2022/11/16 10:25:07;;;;;;;8.90;7.82;;;13.70;99.90;;;;;;5045435;28;20034;-27
2022/11/16 10:28:14;;;;;;;9.13;6.80;;;13.60;99.90;;;;;;5031360;28;20486;-28
2022/11/16 10:30:56;;;;;;;7.72;6.38;;;13.40;99.90;;;;;;5011468;28;20068;-28
2022/11/16 10:33:25;;;;;;;7.53;6.18;;;13.30;99.90;;;;;;5034801;28;20040;-28
2022/11/16 10:35:55;;;;;;;9.45;6.38;;;13.20;99.90;;;;;;5034208;28;20505;-28
2022/11/16 10:38:29;;;;;;;11.18;6.13;;;13.30;99.90;;;;;;5034106;28;20128;-28
2022/11/16 10:41:00;;;;;;;6.05;5.45;;;13.30;99.90;;;;;;5042781;28;20049;-28
2022/11/16 10:43:30;;;;;;;7.45;5.22;;;13.40;99.90;;;;;;5029054;28;20043;-28
2022/11/16 10:46:23;;;;;;;9.73;5.05;;;13.70;99.90;;;;;;5033880;28;20090;-28
2022/11/16 10:49:00;;;;;;;10.20;5.55;;;14.00;99.90;;;;;;5044904;28;20522;-28
2022/11/16 10:51:26;;;;;;;8.20;4.95;;;13.90;99.90;;;;;;5034188;28;20044;-28
2022/11/16 10:53:53;;;;;;;6.47;4.70;;;14.00;99.90;;;;;;5050242;28;20029;-28
2022/11/16 10:56:30;;;;;;;5.95;4.07;;;14.30;99.90;;;;;;5025351;28;20121;-28
2022/11/16 10:59:01;;;;;;;5.22;4.45;;;14.60;99.90;;;;;;5033008;28;20033;-28
2022/11/16 11:01:35;;;;;;;8.98;4.93;;;14.80;99.90;;;;;;5050969;28;20040;-28
2022/11/16 11:04:19;;;;;;;;;;;14.80;99.90;;;;;;5034256;28;20033;-28
2022/11/16 11:06:46;;;;;;;;;;;14.70;99.90;;;;;;5038896;28;19924;-27
2022/11/16 11:09:30;;;;;;;6.57;3.65;;;14.50;99.90;;;;;;5022004;28;19917;-28
2022/11/16 11:15:10;;;;;;;6.32;4.00;;;14.50;99.90;;;;;;5045677;28;20048;-28
2022/11/16 11:17:39;;;;;;;5.82;4.00;;;14.60;99.90;;;;;;5051012;28;20068;-28
2022/11/16 11:20:14;;;;;;;7.03;3.70;;;14.90;99.90;;;;;;5029315;28;20095;-28
2022/11/16 11:22:53;;;;;;;5.65;3.85;;;15.30;99.90;;;;;;5048211;28;20037;-28
2022/11/16 11:25:19;;;;;;;9.15;3.70;;;15.90;99.90;;;;;;5034958;28;20048;-27
2022/11/16 11:27:45;;;;;;;5.70;3.28;;;16.50;99.90;;;;;;5050661;28;20390;-28
2022/11/16 11:30:20;;;;;;;8.45;3.38;;;16.90;99.90;;;;;;5037899;28;20044;-27
2022/11/16 11:32:47;;;;;;;6.57;3.35;;;17.40;99.90;;;;;;5034975;28;20038;-27
2022/11/16 11:35:25;;;;;;;5.43;3.28;;;17.70;99.90;;;;;;5039276;28;20037;-28
2022/11/16 11:37:55;;;;;;;5.65;3.30;;;17.90;99.90;;;;;;5033138;28;20362;-27
2022/11/16 11:40:29;;;;;;;5.90;3.20;;;17.90;99.90;;;;;;5037012;28;20037;-27
2022/11/16 11:42:58;;;;;;;6.40;3.03;;;17.80;99.90;;;;;;5037664;28;20029;-27
2022/11/16 11:45:30;;;;;;;7.35;3.20;;;17.40;99.90;;;;;;5018481;28;20037;-27
2022/11/16 11:48:23;;;;;;;9.60;2.97;;;17.20;99.90;;;;;;5033872;28;20040;-27
2022/11/16 11:51:11;;;;;;;7.40;3.08;;;17.00;99.90;;;;;;5044552;28;20033;-27
2022/11/16 11:53:54;;;;;;;6.20;3.10;;;17.00;99.90;;;;;;5035199;28;20135;-27
2022/11/16 11:56:20;;;;;;;7.13;2.90;;;17.00;99.90;;;;;;5036309;28;20040;-27
2022/11/16 11:58:47;;;;;;;4.05;2.47;;;16.80;99.90;;;;;;5034890;28;20121;-27
2022/11/16 12:01:28;;;;;;;6.80;2.65;;;17.00;99.90;;;;;;5036917;28;20045;-27
2022/11/16 12:04:03;;;;;;;6.22;2.58;;;17.50;99.90;;;;;;5036852;28;20044;-27
2022/11/16 12:06:46;;;;;;;7.18;3.22;;;18.10;99.90;;;;;;5034845;28;20094;-27
2022/11/16 12:09:12;;;;;;;6.85;2.80;;;18.50;99.90;;;;;;5042192;28;20040;-27
2022/11/16 12:12:04;;;;;;;6.53;2.65;;;19.10;99.90;;;;;;5036930;28;20375;-28
2022/11/16 12:14:57;;;;;;;7.32;2.65;;;19.60;99.90;;;;;;5042129;28;20372;-27
2022/11/16 12:17:52;;;;;;;11.55;2.83;;;20.00;99.90;;;;;;5020479;28;20126;-28
2022/11/16 12:20:34;;;;;;;8.02;2.60;;;20.80;99.90;;;;;;5054348;28;20167;-27
2022/11/16 12:23:22;;;;;;;6.03;2.38;;;21.00;93.10;;;;;;5040837;28;20029;-27
2022/11/16 12:25:56;;;;;;;7.13;3.25;;;21.10;99.90;;;;;;5053110;28;20069;-28
2022/11/16 12:28:43;;;;;;;9.45;2.83;;;20.90;99.90;;;;;;5046307;28;20067;-28
2022/11/16 12:31:26;;;;;;;6.35;3.30;;;20.80;98.40;;;;;;5018988;28;20040;-27
2022/11/16 12:34:01;;;;;;;5.15;2.60;;;20.60;99.90;;;;;;5047247;28;20076;-28
2022/11/16 12:36:29;;;;;;;6.68;2.72;;;20.80;99.90;;;;;;5036485;28;20044;-28
2022/11/16 12:38:58;;;;;;;7.63;2.90;;;20.90;99.90;;;;;;5052953;28;20045;-27
2022/11/16 12:41:32;;;;;;;7.15;2.80;;;21.20;99.90;;;;;;5049282;28;20390;-28
2022/11/16 12:44:09;;;;;;;8.57;2.85;;;21.60;99.90;;;;;;5036366;28;20493;-28
2022/11/16 12:47:04;;;;;;;7.07;2.58;;;21.70;97.80;;;;;;5046571;28;20036;-28
2022/11/16 12:50:04;;;;;;;9.80;3.10;;;21.90;99.10;;;;;;5048216;28;20048;-28
2022/11/16 12:52:50;;;;;;;5.13;2.50;;;22.00;89.60;;;;;;5023505;28;20518;-28
2022/11/16 12:55:39;;;;;;;6.53;2.70;;;21.70;94.00;;;;;;5054171;28;20493;-28
2022/11/16 12:58:27;;;;;;;7.85;2.60;;;20.80;87.90;;;;;;5050043;28;20383;-27
2022/11/16 13:01:01;;;;;;;7.07;2.25;;;20.70;95.40;;;;;;5040538;28;20502;-28
2022/11/16 13:03:48;;;;;;;5.82;2.42;;;20.80;95.10;;;;;;5046623;28;20112;-28
2022/11/16 13:06:33;;;;;;;8.60;2.65;;;20.80;94.60;;;;;;5040637;28;20029;-28
2022/11/16 13:09:08;;;;;;;5.75;2.35;;;20.90;97.50;;;;;;5033976;28;20033;-28
2022/11/16 13:11:42;;;;;;;10.07;2.72;;;21.40;81.00;;;;;;5028074;28;20041;-28
2022/11/16 13:14:19;;;;;;;7.95;2.42;;;21.80;84.90;;;;;;5050486;28;20087;-28
2022/11/16 13:16:46;;;;;;;4.05;2.25;;;21.80;77.90;;;;;;5031956;28;20037;-28
2022/11/16 13:19:15;;;;;;;7.05;2.03;;;21.70;82.30;;;;;;5033355;28;20041;-28
2022/11/16 13:21:58;;;;;;;6.18;2.45;;;21.80;79.20;;;;;;5035370;28;20107;-28
2022/11/16 13:25:11;;;;;;;6.47;2.42;;;21.90;67.70;;;;;;5048923;28;20538;-28
2022/11/16 13:27:48;;;;;;;10.25;3.55;;;21.60;65.50;;;;;;4991316;28;20118;-28
2022/11/16 13:30:37;;;;;;;7.13;2.97;;;21.40;82.50;;;;;;4975346;28;20038;-27
2022/11/16 13:33:17;;;;;;;8.90;2.40;;;21.00;73.60;;;;;;5019093;28;20045;-27
2022/11/16 13:35:43;;;;;;;6.32;2.20;;;20.10;88.90;;;;;;5035679;28;20091;-28
2022/11/16 13:38:12;;;;;;;10.43;3.05;;;19.20;94.70;;;;;;5035171;28;20068;-27
2022/11/16 13:40:39;;;;;;;5.13;2.45;;;18.60;96.40;;;;;;5034241;28;20037;-27
2022/11/16 13:43:08;;;;;;;6.55;2.15;;;18.00;99.90;;;;;;5034615;28;20060;-27